createdAt,value
2023-01-29T00:00:14.505Z,102278.75
2023-01-29T00:02:43.457Z,102268.97
2023-01-29T00:05:27.017Z,102269.75
2023-01-29T00:07:56.660Z,102268.53
2023-01-29T00:10:25.645Z,102269.75
2023-01-29T00:12:54.127Z,102266.41
2023-01-29T00:15:22.647Z,102264.91
2023-01-29T00:17:51.192Z,102268.69
2023-01-29T00:20:21.108Z,102265.06
2023-01-29T00:22:49.608Z,102266.72
2023-01-29T00:25:18.374Z,102274.81
2023-01-29T00:27:46.849Z,102264.00
2023-01-29T00:30:19.613Z,102257.69
2023-01-29T00:32:48.487Z,102269.75
2023-01-29T00:35:17.131Z,102263.59
2023-01-29T00:37:47.014Z,102250.81
2023-01-29T00:40:16.010Z,102243.88
2023-01-29T00:43:03.593Z,102244.91
2023-01-29T00:45:32.166Z,102238.88
2023-01-29T00:48:00.967Z,102234.22
2023-01-29T00:50:29.479Z,102234.97
2023-01-29T00:52:59.358Z,102231.81
2023-01-29T00:55:27.882Z,102233.13
2023-01-29T00:57:56.377Z,102227.75
2023-01-29T01:00:25.953Z,102229.13
2023-01-29T01:03:05.948Z,102226.41
2023-01-29T01:05:34.875Z,102228.34
2023-01-29T01:08:25.092Z,102238.06
2023-01-29T01:11:00.089Z,102237.16
2023-01-29T01:13:29.085Z,102231.59
2023-01-29T01:15:57.704Z,102232.34
2023-01-29T01:18:26.524Z,102233.38
2023-01-29T01:20:59.702Z,102231.16
2023-01-29T01:23:29.807Z,102229.94
2023-01-29T01:25:58.357Z,102227.50
2023-01-29T01:28:27.179Z,102237.47
2023-01-29T01:30:56.024Z,102237.13
2023-01-29T01:33:24.888Z,102229.94
2023-01-29T01:35:53.458Z,102226.34
2023-01-29T01:38:21.930Z,102224.56
2023-01-29T01:40:51.779Z,102232.66
2023-01-29T01:43:20.316Z,102239.44
2023-01-29T01:45:48.839Z,102231.88
2023-01-29T01:48:21.433Z,102232.81
2023-01-29T01:50:53.462Z,102233.38
2023-01-29T01:53:27.249Z,102235.94
2023-01-29T01:56:09.054Z,102235.47
2023-01-29T01:58:42.117Z,102232.91
2023-01-29T02:01:11.779Z,102230.78
2023-01-29T02:04:03.297Z,102224.63
2023-01-29T02:06:49.721Z,102214.56
2023-01-29T02:09:36.016Z,102219.06
2023-01-29T02:12:09.574Z,102213.34
2023-01-29T02:14:40.273Z,102204.31
2023-01-29T02:17:11.455Z,102218.00
2023-01-29T02:19:48.377Z,102208.22
2023-01-29T02:22:43.083Z,102216.63
2023-01-29T02:25:41.341Z,102208.81
2023-01-29T02:28:22.744Z,102197.69
2023-01-29T02:31:00.565Z,102196.44
2023-01-29T02:33:42.421Z,102198.91
2023-01-29T02:36:20.783Z,102195.78
2023-01-29T02:39:03.399Z,102210.22
2023-01-29T02:41:39.826Z,102209.44
2023-01-29T02:44:23.160Z,102202.69
2023-01-29T02:46:58.703Z,102198.72
2023-01-29T02:49:34.446Z,102195.47
2023-01-29T02:52:07.958Z,102195.69
2023-01-29T02:54:45.634Z,102192.88
2023-01-29T02:57:21.889Z,102186.28
2023-01-29T02:59:56.792Z,102185.34
2023-01-29T03:02:32.328Z,102192.88
2023-01-29T03:05:05.097Z,102186.88
2023-01-29T03:07:46.305Z,102173.94
2023-01-29T03:10:19.895Z,102189.09
2023-01-29T03:12:56.323Z,102185.31
2023-01-29T03:15:29.714Z,102184.75
2023-01-29T03:18:04.683Z,102174.09
2023-01-29T03:20:38.570Z,102176.56
2023-01-29T03:23:12.892Z,102181.09
2023-01-29T03:26:00.306Z,102178.53
2023-01-29T03:28:48.444Z,102173.22
2023-01-29T03:31:37.154Z,102171.13
2023-01-29T03:34:16.640Z,102162.53
2023-01-29T03:36:55.743Z,102162.06
2023-01-29T03:39:29.255Z,102153.66
2023-01-29T03:42:03.748Z,102149.47
2023-01-29T03:44:40.497Z,102151.25
2023-01-29T03:47:19.866Z,102135.28
2023-01-29T03:49:58.766Z,102142.81
2023-01-29T03:52:35.043Z,102135.91
2023-01-29T03:55:10.696Z,102126.91
2023-01-29T03:57:45.547Z,102124.19
2023-01-29T04:00:19.377Z,102124.50
2023-01-29T04:02:56.633Z,102112.66
2023-01-29T04:05:29.643Z,102105.75
2023-01-29T04:08:04.096Z,102103.19
2023-01-29T04:10:32.861Z,102092.59
2023-01-29T04:13:05.387Z,102089.56
2023-01-29T04:15:40.179Z,102081.19
2023-01-29T04:18:11.314Z,102075.66
2023-01-29T04:20:39.865Z,102068.25
2023-01-29T04:23:08.646Z,102072.63
2023-01-29T04:25:44.425Z,102074.63
2023-01-29T04:28:20.155Z,102075.19
2023-01-29T04:30:55.115Z,102076.06
2023-01-29T04:33:34.014Z,102067.50
2023-01-29T04:36:18.721Z,102062.31
2023-01-29T04:38:56.132Z,102051.63
2023-01-29T04:41:31.080Z,102056.13
2023-01-29T04:44:03.427Z,102055.25
2023-01-29T04:46:40.223Z,102063.56
2023-01-29T04:49:19.500Z,102062.00
2023-01-29T04:51:57.626Z,102063.25
2023-01-29T04:54:37.266Z,102062.31
2023-01-29T04:57:13.225Z,102066.09
2023-01-29T04:59:46.418Z,102065.75
2023-01-29T05:02:15.320Z,102064.66
2023-01-29T05:04:47.384Z,102067.97
2023-01-29T05:07:17.054Z,102061.41
2023-01-29T05:09:46.623Z,102059.84
2023-01-29T05:12:18.270Z,102070.06
2023-01-29T05:14:48.553Z,102068.88
2023-01-29T05:17:19.664Z,102059.00
2023-01-29T05:19:49.893Z,102062.88
2023-01-29T05:22:22.676Z,102067.38
2023-01-29T05:24:51.324Z,102070.41
2023-01-29T05:27:41.188Z,102072.81
2023-01-29T05:30:11.418Z,102067.97
2023-01-29T05:32:39.892Z,102075.19
2023-01-29T05:35:10.160Z,102072.00
2023-01-29T05:37:38.513Z,102061.53
2023-01-29T05:40:08.986Z,102070.59
2023-01-29T05:42:37.313Z,102071.00
2023-01-29T05:45:06.510Z,102072.06
2023-01-29T05:47:34.904Z,102075.25
2023-01-29T05:50:03.564Z,102071.00
2023-01-29T05:52:33.445Z,102073.50
2023-01-29T05:55:01.793Z,102073.66
2023-01-29T05:57:30.207Z,102087.56
2023-01-29T05:59:58.614Z,102081.75
2023-01-29T06:02:27.035Z,102084.75
2023-01-29T06:04:55.367Z,102087.00
2023-01-29T06:07:23.703Z,102078.84
2023-01-29T06:09:53.470Z,102083.13
2023-01-29T06:12:21.813Z,102093.81
2023-01-29T06:14:50.169Z,102100.66
2023-01-29T06:17:18.572Z,102097.78
2023-01-29T06:19:46.954Z,102099.31
2023-01-29T06:22:15.341Z,102101.97
2023-01-29T06:24:43.702Z,102097.78
2023-01-29T06:27:13.372Z,102095.06
2023-01-29T06:29:41.757Z,102086.59
2023-01-29T06:32:10.133Z,102085.63
2023-01-29T06:34:38.601Z,102088.19
2023-01-29T06:37:07.885Z,102084.88
2023-01-29T06:39:36.578Z,102086.06
2023-01-29T06:42:05.072Z,102084.75
2023-01-29T06:44:35.980Z,102076.44
2023-01-29T06:47:04.350Z,102097.19
2023-01-29T06:49:32.774Z,102102.03
2023-01-29T06:52:01.142Z,102092.41
2023-01-29T06:54:29.595Z,102097.75
2023-01-29T06:56:57.945Z,102097.94
2023-01-29T06:59:26.285Z,102086.31
2023-01-29T07:01:56.149Z,102085.44
2023-01-29T07:04:24.781Z,102091.34
2023-01-29T07:06:53.832Z,102089.03
2023-01-29T07:09:22.204Z,102090.19
2023-01-29T07:11:50.582Z,102085.97
2023-01-29T07:14:18.951Z,102089.56
2023-01-29T07:16:47.445Z,102082.59
2023-01-29T07:19:17.280Z,102076.06
2023-01-29T07:21:45.686Z,102077.81
2023-01-29T07:24:14.260Z,102075.19
2023-01-29T07:26:42.660Z,102073.66
2023-01-29T07:29:11.154Z,102089.56
2023-01-29T07:31:39.634Z,102093.19
2023-01-29T07:34:08.017Z,102098.31
2023-01-29T07:36:38.132Z,102090.97
2023-01-29T07:39:06.525Z,102099.63
2023-01-29T07:41:34.840Z,102089.25
2023-01-29T07:44:03.246Z,102070.22
2023-01-29T07:46:31.743Z,102073.03
2023-01-29T07:49:00.416Z,102069.84
2023-01-29T07:51:28.776Z,102067.03
2023-01-29T07:53:58.496Z,102054.00
2023-01-29T07:56:27.069Z,102044.03
2023-01-29T07:58:55.496Z,102042.72
2023-01-29T08:01:24.014Z,102055.50
2023-01-29T08:03:52.708Z,102062.47
2023-01-29T08:06:21.172Z,102066.66
2023-01-29T08:08:49.540Z,102047.84
2023-01-29T08:11:19.393Z,102048.25
2023-01-29T08:13:47.834Z,102041.69
2023-01-29T08:16:16.259Z,102042.22
2023-01-29T08:18:47.656Z,102054.00
2023-01-29T08:21:16.598Z,102049.38
2023-01-29T08:23:44.992Z,102057.06
2023-01-29T08:26:13.409Z,102046.97
2023-01-29T08:28:43.219Z,102040.44
2023-01-29T08:31:15.602Z,102045.56
2023-01-29T08:33:44.328Z,102046.09
2023-01-29T08:36:12.892Z,102051.22
2023-01-29T08:38:41.617Z,102045.56
2023-01-29T08:41:09.965Z,102037.66
2023-01-29T08:43:38.675Z,102039.59
2023-01-29T08:46:08.995Z,102044.84
2023-01-29T08:48:37.517Z,102041.03
2023-01-29T08:51:06.162Z,102034.34
2023-01-29T08:53:34.571Z,102044.50
2023-01-29T08:56:02.964Z,102036.69
2023-01-29T08:58:31.307Z,102035.91
2023-01-29T09:01:08.422Z,102035.44
2023-01-29T09:03:37.196Z,102029.25
2023-01-29T09:06:05.871Z,102031.38
2023-01-29T09:08:34.375Z,102035.22
2023-01-29T09:11:02.787Z,102031.00
2023-01-29T09:13:31.338Z,102028.31
2023-01-29T09:16:01.057Z,102031.66
2023-01-29T09:18:31.692Z,102034.97
2023-01-29T09:21:00.047Z,102030.09
2023-01-29T09:23:28.565Z,102027.56
2023-01-29T09:25:57.432Z,102026.28
2023-01-29T09:28:26.081Z,102030.38
2023-01-29T09:30:54.604Z,102040.38
2023-01-29T09:33:24.674Z,102028.38
2023-01-29T09:35:54.517Z,102036.22
2023-01-29T09:38:22.848Z,102020.84
2023-01-29T09:40:59.574Z,102028.38
2023-01-29T09:43:43.810Z,102013.25
2023-01-29T09:46:19.322Z,102010.19
2023-01-29T09:48:49.373Z,102001.09
2023-01-29T09:51:29.528Z,102000.97
2023-01-29T09:54:10.290Z,101995.09
2023-01-29T09:56:38.769Z,101990.63
2023-01-29T09:59:07.142Z,101986.66
2023-01-29T10:01:43.247Z,101971.28
2023-01-29T10:04:40.921Z,101975.88
2023-01-29T10:07:35.076Z,101975.63
2023-01-29T10:10:16.030Z,101973.06
2023-01-29T10:12:58.365Z,101976.13
2023-01-29T10:15:37.362Z,101961.75
2023-01-29T10:18:34.387Z,101949.97
2023-01-29T10:21:18.177Z,101946.13
2023-01-29T10:23:51.850Z,101957.53
2023-01-29T10:26:23.342Z,101959.44
2023-01-29T10:28:56.594Z,101963.38
2023-01-29T10:31:32.765Z,101965.56
2023-01-29T10:34:04.696Z,101971.63
2023-01-29T10:36:37.725Z,101957.34
2023-01-29T10:39:15.905Z,101966.31
2023-01-29T10:42:03.507Z,101953.22
2023-01-29T10:44:42.096Z,101952.03
2023-01-29T10:47:35.783Z,101947.25
2023-01-29T10:50:19.565Z,101943.06
2023-01-29T10:53:04.536Z,101936.50
2023-01-29T10:55:47.700Z,101944.66
2023-01-29T10:58:27.420Z,101938.38
2023-01-29T11:00:55.842Z,101931.94
2023-01-29T11:03:28.478Z,101915.63
2023-01-29T11:06:05.268Z,101906.66
2023-01-29T11:08:41.361Z,101913.03
2023-01-29T11:11:15.281Z,101914.59
2023-01-29T11:13:47.182Z,101901.63
2023-01-29T11:16:15.615Z,101901.31
2023-01-29T11:18:56.271Z,101888.72
2023-01-29T11:21:26.054Z,101893.28
2023-01-29T11:24:07.812Z,101883.88
2023-01-29T11:26:41.539Z,101889.00
2023-01-29T11:29:45.783Z,101885.50
2023-01-29T11:32:25.395Z,101882.38
2023-01-29T11:35:02.286Z,101872.22
2023-01-29T11:37:38.322Z,101874.00
2023-01-29T11:40:39.200Z,101875.56
2023-01-29T11:43:20.354Z,101871.56
2023-01-29T11:45:51.336Z,101867.06
2023-01-29T11:48:22.374Z,101860.94
2023-01-29T11:50:55.693Z,101859.38
2023-01-29T11:53:34.990Z,101859.91
2023-01-29T11:56:08.355Z,101845.72
2023-01-29T11:58:38.168Z,101849.53
2023-01-29T12:01:06.863Z,101852.00
2023-01-29T12:03:38.619Z,101853.91
2023-01-29T12:06:09.526Z,101848.28
2023-01-29T12:08:40.243Z,101845.97
2023-01-29T12:11:11.339Z,101834.38
2023-01-29T12:13:43.391Z,101829.88
2023-01-29T12:16:22.602Z,101812.13
2023-01-29T12:18:55.764Z,101813.81
2023-01-29T12:21:31.587Z,101816.28
2023-01-29T12:24:04.536Z,101810.69
2023-01-29T12:26:37.096Z,101816.09
2023-01-29T12:29:42.860Z,101800.78
2023-01-29T12:32:23.332Z,101800.00
2023-01-29T12:34:56.532Z,101795.41
2023-01-29T12:37:32.127Z,101795.63
2023-01-29T12:40:02.375Z,101771.91
2023-01-29T12:42:30.910Z,101774.28
2023-01-29T12:45:05.281Z,101774.28
2023-01-29T12:47:36.817Z,101776.72
2023-01-29T12:50:19.779Z,101778.06
2023-01-29T12:52:51.239Z,101772.13
2023-01-29T12:55:23.249Z,101776.97
2023-01-29T12:57:56.907Z,101776.94
2023-01-29T13:00:29.368Z,101777.41
2023-01-29T13:03:05.276Z,101773.59
2023-01-29T13:05:40.633Z,101773.38
2023-01-29T13:08:18.673Z,101773.38
2023-01-29T13:10:50.508Z,101764.63
2023-01-29T13:13:27.786Z,101763.56
2023-01-29T13:16:00.064Z,101769.13
2023-01-29T13:18:41.234Z,101753.47
2023-01-29T13:21:14.541Z,101746.34
2023-01-29T13:23:47.090Z,101750.13
2023-01-29T13:26:19.211Z,101747.75
2023-01-29T13:28:49.194Z,101746.78
2023-01-29T13:31:31.521Z,101741.06
2023-01-29T13:34:10.903Z,101748.91
2023-01-29T13:36:44.298Z,101741.97
2023-01-29T13:39:23.913Z,101735.28
2023-01-29T13:41:53.907Z,101731.47
2023-01-29T13:44:27.347Z,101737.38
2023-01-29T13:46:59.753Z,101731.91
2023-01-29T13:49:34.318Z,101736.06
2023-01-29T13:52:18.502Z,101733.69
2023-01-29T13:54:57.297Z,101732.94
2023-01-29T13:57:50.715Z,101737.16
2023-01-29T14:00:55.503Z,101742.97
2023-01-29T14:04:06.109Z,101735.59
2023-01-29T14:06:47.512Z,101730.22
2023-01-29T14:09:50.069Z,101728.44
2023-01-29T14:12:36.240Z,101725.41
2023-01-29T14:15:24.105Z,101738.03
2023-01-29T14:17:59.609Z,101715.69
2023-01-29T14:20:45.083Z,101708.63
2023-01-29T14:23:28.352Z,101712.19
2023-01-29T14:25:57.521Z,101703.91
2023-01-29T14:28:30.545Z,101711.28
2023-01-29T14:30:59.953Z,101708.28
2023-01-29T14:33:34.241Z,101718.31
2023-01-29T14:36:08.868Z,101712.94
2023-01-29T14:38:38.000Z,101705.91
2023-01-29T14:41:16.170Z,101700.41
2023-01-29T14:43:44.573Z,101706.78
2023-01-29T14:46:45.439Z,101712.50
2023-01-29T14:49:13.872Z,101697.97
2023-01-29T14:51:46.347Z,101691.25
2023-01-29T14:54:23.800Z,101680.28
2023-01-29T14:56:59.814Z,101685.66
2023-01-29T14:59:34.582Z,101685.94
2023-01-29T15:02:14.076Z,101681.50
2023-01-29T15:04:49.211Z,101677.41
2023-01-29T15:07:28.775Z,101684.94
2023-01-29T15:10:22.529Z,101681.84
2023-01-29T15:12:58.214Z,101677.56
2023-01-29T15:15:37.407Z,101682.38
2023-01-29T15:18:09.166Z,101679.34
2023-01-29T15:20:39.691Z,101670.41
2023-01-29T15:23:28.103Z,101665.13
2023-01-29T15:25:58.770Z,101672.31
2023-01-29T15:28:30.867Z,101668.06
2023-01-29T15:31:01.936Z,101663.69
2023-01-29T15:33:31.206Z,101646.47
2023-01-29T15:36:08.800Z,101654.28
2023-01-29T15:38:38.713Z,101649.41
2023-01-29T15:41:18.656Z,101650.06
2023-01-29T15:43:48.665Z,101648.94
2023-01-29T15:46:23.052Z,101643.56
2023-01-29T15:48:51.767Z,101640.00
2023-01-29T15:51:22.816Z,101637.66
2023-01-29T15:53:55.267Z,101637.34
2023-01-29T15:56:28.905Z,101638.88
2023-01-29T15:58:59.932Z,101629.94
2023-01-29T16:01:29.119Z,101626.59
2023-01-29T16:03:59.496Z,101623.28
2023-01-29T16:06:28.673Z,101627.16
2023-01-29T16:08:59.353Z,101618.56
2023-01-29T16:11:27.892Z,101612.00
2023-01-29T16:13:57.701Z,101621.25
2023-01-29T16:16:27.096Z,101616.34
2023-01-29T16:19:01.106Z,101605.31
2023-01-29T16:21:33.204Z,101619.94
2023-01-29T16:24:09.184Z,101615.22
2023-01-29T16:26:39.444Z,101605.31
2023-01-29T16:29:10.667Z,101600.06
2023-01-29T16:31:40.758Z,101611.19
2023-01-29T16:34:15.682Z,101608.56
2023-01-29T16:36:47.580Z,101609.34
2023-01-29T16:39:20.846Z,101603.28
2023-01-29T16:42:20.803Z,101604.00
2023-01-29T16:44:53.355Z,101611.88
2023-01-29T16:47:32.415Z,101594.56
2023-01-29T16:50:03.309Z,101601.38
2023-01-29T16:52:33.972Z,101596.13
2023-01-29T16:55:22.724Z,101605.63
2023-01-29T16:57:54.452Z,101594.28
2023-01-29T17:00:25.991Z,101605.06
2023-01-29T17:02:57.971Z,101607.88
2023-01-29T17:05:30.007Z,101597.63
2023-01-29T17:07:59.508Z,101604.28
2023-01-29T17:10:31.172Z,101589.22
2023-01-29T17:13:03.259Z,101590.22
2023-01-29T17:15:37.770Z,101579.63
2023-01-29T17:18:13.076Z,101570.81
2023-01-29T17:20:41.280Z,101577.31
2023-01-29T17:23:10.148Z,101570.84
2023-01-29T17:25:40.467Z,101569.41
2023-01-29T17:28:12.214Z,101561.47
2023-01-29T17:30:40.849Z,101569.69
2023-01-29T17:33:14.109Z,101569.84
2023-01-29T17:35:44.462Z,101565.25
2023-01-29T17:38:24.929Z,101562.38
2023-01-29T17:40:59.098Z,101554.22
2023-01-29T17:43:27.540Z,101549.94
2023-01-29T17:45:56.049Z,101546.16
2023-01-29T17:48:25.860Z,101547.19
2023-01-29T17:50:56.276Z,101530.91
2023-01-29T17:53:30.478Z,101529.31
2023-01-29T17:56:02.779Z,101520.63
2023-01-29T17:58:31.156Z,101518.59
2023-01-29T18:00:59.493Z,101510.97
2023-01-29T18:03:28.162Z,101517.22
2023-01-29T18:05:56.687Z,101503.66
2023-01-29T18:08:30.081Z,101498.72
2023-01-29T18:10:58.644Z,101504.31
2023-01-29T18:13:28.478Z,101485.81
2023-01-29T18:15:57.002Z,101482.00
2023-01-29T18:18:25.902Z,101499.63
2023-01-29T18:20:54.691Z,101481.34
2023-01-29T18:23:23.352Z,101470.88
2023-01-29T18:25:52.759Z,101484.47
2023-01-29T18:28:21.132Z,101471.97
2023-01-29T18:30:51.008Z,101472.53
2023-01-29T18:33:19.562Z,101485.59
2023-01-29T18:35:49.054Z,101475.19
2023-01-29T18:38:18.368Z,101478.31
2023-01-29T18:40:46.694Z,101474.88
2023-01-29T18:43:15.329Z,101459.25
2023-01-29T18:45:43.762Z,101456.91
2023-01-29T18:48:14.142Z,101462.28
2023-01-29T18:50:42.501Z,101460.72
2023-01-29T18:53:10.865Z,101459.03
2023-01-29T18:55:39.257Z,101456.91
2023-01-29T18:58:26.380Z,101458.72
2023-01-29T19:00:56.076Z,101445.69
2023-01-29T19:03:26.235Z,101445.00
2023-01-29T19:05:54.559Z,101451.69
2023-01-29T19:08:22.914Z,101451.69
2023-01-29T19:10:51.237Z,101437.41
2023-01-29T19:13:19.610Z,101434.75
2023-01-29T19:15:49.093Z,101433.16
2023-01-29T19:18:17.453Z,101430.72
2023-01-29T19:20:47.176Z,101431.16
2023-01-29T19:23:15.506Z,101416.34
2023-01-29T19:25:43.927Z,101418.91
2023-01-29T19:28:12.671Z,101405.50
2023-01-29T19:30:41.027Z,101405.28
2023-01-29T19:33:10.626Z,101405.06
2023-01-29T19:35:39.019Z,101388.22
2023-01-29T19:38:09.309Z,101394.13
2023-01-29T19:40:38.698Z,101382.88
2023-01-29T19:43:07.098Z,101381.09
2023-01-29T19:45:49.530Z,101376.94
2023-01-29T19:48:21.309Z,101375.63
2023-01-29T19:50:53.540Z,101374.94
2023-01-29T19:53:23.602Z,101366.69
2023-01-29T19:55:58.684Z,101363.56
2023-01-29T19:58:27.278Z,101361.44
2023-01-29T20:00:57.084Z,101376.84
2023-01-29T20:03:26.364Z,101363.78
2023-01-29T20:05:54.717Z,101361.34
2023-01-29T20:08:24.984Z,101349.41
2023-01-29T20:10:53.360Z,101341.47
2023-01-29T20:13:21.773Z,101343.84
2023-01-29T20:15:51.099Z,101338.78
2023-01-29T20:18:20.207Z,101332.13
2023-01-29T20:20:50.321Z,101321.06
2023-01-29T20:23:36.677Z,101322.41
2023-01-29T20:26:08.222Z,101324.31
2023-01-29T20:28:36.889Z,101308.38
2023-01-29T20:31:06.431Z,101295.00
2023-01-29T20:33:37.026Z,101297.75
2023-01-29T20:36:10.087Z,101299.88
2023-01-29T20:38:39.052Z,101290.84
2023-01-29T20:41:10.144Z,101290.41
2023-01-29T20:43:38.699Z,101289.88
2023-01-29T20:46:07.429Z,101280.81
2023-01-29T20:48:35.801Z,101277.59
2023-01-29T20:51:06.631Z,101264.09
2023-01-29T20:53:35.439Z,101258.53
2023-01-29T20:56:04.809Z,101252.97
2023-01-29T20:58:35.020Z,101250.84
2023-01-29T21:01:08.770Z,101257.19
2023-01-29T21:03:37.429Z,101248.09
2023-01-29T21:06:06.517Z,101241.81
2023-01-29T21:08:35.341Z,101227.66
2023-01-29T21:11:03.970Z,101217.88
2023-01-29T21:13:32.579Z,101215.63
2023-01-29T21:16:03.204Z,101210.28
2023-01-29T21:18:32.287Z,101198.22
2023-01-29T21:21:00.728Z,101204.56
2023-01-29T21:23:29.133Z,101205.25
2023-01-29T21:26:02.528Z,101197.78
2023-01-29T21:28:31.133Z,101194.66
2023-01-29T21:31:10.375Z,101192.09
2023-01-29T21:33:39.091Z,101178.69
2023-01-29T21:36:10.032Z,101185.50
2023-01-29T21:38:38.719Z,101178.06
2023-01-29T21:41:09.950Z,101174.91
2023-01-29T21:43:37.570Z,101164.63
2023-01-29T21:46:11.814Z,101160.91
2023-01-29T21:48:40.922Z,101157.97
2023-01-29T21:51:09.825Z,101149.44
2023-01-29T21:53:38.142Z,101149.75
2023-01-29T21:56:07.570Z,101141.50
2023-01-29T21:58:35.912Z,101145.06
2023-01-29T22:01:35.895Z,101140.84
2023-01-29T22:03:54.166Z,101138.63
2023-01-29T22:06:22.598Z,101138.72
2023-01-29T22:08:51.061Z,101133.03
2023-01-29T22:11:19.735Z,101117.44
2023-01-29T22:13:48.209Z,101123.13
2023-01-29T22:16:16.556Z,101121.91
2023-01-29T22:18:44.880Z,101120.75
2023-01-29T22:21:14.622Z,101115.75
2023-01-29T22:23:42.949Z,101106.97
2023-01-29T22:26:12.224Z,101108.09
2023-01-29T22:28:40.597Z,101095.63
2023-01-29T22:31:08.998Z,101088.91
2023-01-29T22:33:37.637Z,101090.22
2023-01-29T22:36:06.690Z,101073.34
2023-01-29T22:38:36.483Z,101061.50
2023-01-29T22:41:05.501Z,101061.13
2023-01-29T22:43:33.836Z,101066.72
2023-01-29T22:46:02.240Z,101069.88
2023-01-29T22:48:30.819Z,101053.53
2023-01-29T22:51:10.515Z,101052.75
2023-01-29T22:53:42.041Z,101046.22
2023-01-29T22:56:11.611Z,101042.97
2023-01-29T22:58:41.137Z,101023.56
2023-01-29T23:01:10.064Z,101016.66
2023-01-29T23:03:38.486Z,101011.53
2023-01-29T23:06:06.968Z,101007.09
2023-01-29T23:08:35.353Z,101002.38
2023-01-29T23:11:15.054Z,101005.50
2023-01-29T23:13:44.995Z,101017.66
2023-01-29T23:16:14.022Z,100993.25
2023-01-29T23:18:42.705Z,100996.63
2023-01-29T23:21:11.551Z,100983.81
2023-01-29T23:23:40.478Z,100976.69
2023-01-29T23:26:30.209Z,100973.44
2023-01-29T23:28:58.957Z,100966.75
2023-01-29T23:31:27.769Z,100961.91
2023-01-29T23:33:56.645Z,100956.09
2023-01-29T23:36:25.031Z,100952.16
2023-01-29T23:38:53.377Z,100941.75
2023-01-29T23:41:23.237Z,100946.66
2023-01-29T23:43:52.736Z,100943.00
2023-01-29T23:46:21.159Z,100933.94
2023-01-29T23:48:49.597Z,100938.38
2023-01-29T23:51:17.941Z,100921.03
2023-01-29T23:53:46.433Z,100938.38
2023-01-29T23:56:14.901Z,100937.03
2023-01-29T23:58:45.074Z,100923.59
